sensor_id;sensor_type;location;lat;lon;timestamp;pressure;altitude;pressure_sealevel;temperature;humidity
6389;BME280;3227;42.654;23.360;2024-03-02T00:00:40;93889.84;;;9.80;93.31
6389;BME280;3227;42.654;23.360;2024-03-02T00:03:07;93801.63;;;9.22;94.51
6389;BME280;3227;42.654;23.360;2024-03-02T00:05:37;93879.59;;;9.80;94.22
6389;BME280;3227;42.654;23.360;2024-03-02T00:08:04;93877.03;;;9.86;93.75
6389;BME280;3227;42.654;23.360;2024-03-02T00:10:36;93882.03;;;10.00;93.49
6389;BME280;3227;42.654;23.360;2024-03-02T00:13:06;93876.91;;;10.00;92.37
6389;BME280;3227;42.654;23.360;2024-03-02T00:15:41;93881.16;;;10.00;92.05
6389;BME280;3227;42.654;23.360;2024-03-02T00:18:11;93875.28;;;9.90;92.54
6389;BME280;3227;42.654;23.360;2024-03-02T00:20:39;93869.41;;;9.77;93.07
6389;BME280;3227;42.654;23.360;2024-03-02T00:23:14;93877.09;;;9.79;93.06
6389;BME280;3227;42.654;23.360;2024-03-02T00:25:43;93872.88;;;9.69;94.29
6389;BME280;3227;42.654;23.360;2024-03-02T00:28:20;93866.88;;;9.74;93.54
6389;BME280;3227;42.654;23.360;2024-03-02T00:31:05;93862.59;;;9.75;93.72
6389;BME280;3227;42.654;23.360;2024-03-02T00:33:41;93867.00;;;9.56;94.72
6389;BME280;3227;42.654;23.360;2024-03-02T00:36:10;93850.03;;;9.44;94.71
6389;BME280;3227;42.654;23.360;2024-03-02T00:38:44;93856.03;;;9.40;94.91
6389;BME280;3227;42.654;23.360;2024-03-02T00:41:17;93725.38;;;8.58;96.14
6389;BME280;3227;42.654;23.360;2024-03-02T00:44:01;93846.75;;;9.23;96.36
6389;BME280;3227;42.654;23.360;2024-03-02T00:46:33;93865.50;;;9.29;96.19
6389;BME280;3227;42.654;23.360;2024-03-02T00:49:00;93824.75;;;9.02;96.09
6389;BME280;3227;42.654;23.360;2024-03-02T00:51:30;93762.81;;;8.63;96.25
6389;BME280;3227;42.654;23.360;2024-03-02T00:53:59;93845.94;;;9.14;96.62
6389;BME280;3227;42.654;23.360;2024-03-02T00:56:27;93828.91;;;9.20;96.34
6389;BME280;3227;42.654;23.360;2024-03-02T00:58:53;93835.63;;;9.33;95.81
6389;BME280;3227;42.654;23.360;2024-03-02T01:01:20;93838.97;;;9.44;95.89
6389;BME280;3227;42.654;23.360;2024-03-02T01:03:47;93834.59;;;9.61;94.74
6389;BME280;3227;42.654;23.360;2024-03-02T01:06:14;93845.47;;;9.84;93.06
6389;BME280;3227;42.654;23.360;2024-03-02T01:08:42;93847.19;;;9.84;91.80
6389;BME280;3227;42.654;23.360;2024-03-02T01:11:09;93857.28;;;9.98;92.00
6389;BME280;3227;42.654;23.360;2024-03-02T01:13:36;93852.16;;;10.04;91.12
6389;BME280;3227;42.654;23.360;2024-03-02T01:16:03;93845.25;;;10.09;90.80
6389;BME280;3227;42.654;23.360;2024-03-02T01:18:30;93844.31;;;10.22;90.92
6389;BME280;3227;42.654;23.360;2024-03-02T01:20:57;93849.44;;;10.16;90.41
6389;BME280;3227;42.654;23.360;2024-03-02T01:23:24;93696.06;;;9.13;90.92
6389;BME280;3227;42.654;23.360;2024-03-02T01:25:52;93826.66;;;9.88;92.08
6389;BME280;3227;42.654;23.360;2024-03-02T01:28:19;93784.41;;;9.45;93.16
6389;BME280;3227;42.654;23.360;2024-03-02T01:30:47;93827.56;;;9.84;92.51
6389;BME280;3227;42.654;23.360;2024-03-02T01:33:14;93829.22;;;9.88;92.76
6389;BME280;3227;42.654;23.360;2024-03-02T01:35:41;93796.16;;;9.67;92.37
6389;BME280;3227;42.654;23.360;2024-03-02T01:38:07;93821.81;;;9.58;94.02
6389;BME280;3227;42.654;23.360;2024-03-02T01:40:35;93699.69;;;8.82;94.14
6389;BME280;3227;42.654;23.360;2024-03-02T01:43:03;93671.72;;;8.64;94.65
6389;BME280;3227;42.654;23.360;2024-03-02T01:45:30;93820.16;;;9.52;95.21
6389;BME280;3227;42.654;23.360;2024-03-02T01:47:57;93831.28;;;9.47;95.39
6389;BME280;3227;42.654;23.360;2024-03-02T01:50:26;93808.41;;;9.26;96.59
6389;BME280;3227;42.654;23.360;2024-03-02T01:52:52;93787.22;;;9.08;96.61
6389;BME280;3227;42.654;23.360;2024-03-02T01:55:19;93817.72;;;9.33;95.80
6389;BME280;3227;42.654;23.360;2024-03-02T01:57:46;93824.47;;;9.46;95.71
6389;BME280;3227;42.654;23.360;2024-03-02T02:00:15;93819.38;;;9.43;96.14
6389;BME280;3227;42.654;23.360;2024-03-02T02:02:42;93792.97;;;9.41;95.07
6389;BME280;3227;42.654;23.360;2024-03-02T02:05:09;93820.16;;;9.48;95.62
6389;BME280;3227;42.654;23.360;2024-03-02T02:07:36;93828.66;;;9.54;96.00
6389;BME280;3227;42.654;23.360;2024-03-02T02:10:03;93791.25;;;9.40;95.45
6389;BME280;3227;42.654;23.360;2024-03-02T02:12:30;93816.97;;;9.17;97.30
6389;BME280;3227;42.654;23.360;2024-03-02T02:14:57;93812.00;;;8.97;99.64
6389;BME280;3227;42.654;23.360;2024-03-02T02:17:25;93803.59;;;8.77;100.00
6389;BME280;3227;42.654;23.360;2024-03-02T02:19:52;93808.69;;;8.80;100.00
6389;BME280;3227;42.654;23.360;2024-03-02T02:22:20;93800.03;;;9.01;100.00
6389;BME280;3227;42.654;23.360;2024-03-02T02:24:52;93627.03;;;7.85;100.00
6389;BME280;3227;42.654;23.360;2024-03-02T02:27:18;93801.03;;;8.74;100.00
6389;BME280;3227;42.654;23.360;2024-03-02T02:29:45;93803.53;;;8.89;100.00
6389;BME280;3227;42.654;23.360;2024-03-02T02:32:12;93809.50;;;8.82;100.00
6389;BME280;3227;42.654;23.360;2024-03-02T02:34:38;93801.88;;;8.73;100.00
6389;BME280;3227;42.654;23.360;2024-03-02T02:37:05;93813.75;;;8.83;100.00
6389;BME280;3227;42.654;23.360;2024-03-02T02:39:33;93800.22;;;8.72;100.00
6389;BME280;3227;42.654;23.360;2024-03-02T02:42:00;93807.84;;;8.80;100.00
6389;BME280;3227;42.654;23.360;2024-03-02T02:44:28;93804.31;;;8.99;100.00
6389;BME280;3227;42.654;23.360;2024-03-02T02:46:55;93810.19;;;9.14;100.00
6389;BME280;3227;42.654;23.360;2024-03-02T02:49:21;93686.38;;;8.25;100.00
6389;BME280;3227;42.654;23.360;2024-03-02T02:51:48;93800.91;;;9.00;100.00
6389;BME280;3227;42.654;23.360;2024-03-02T02:54:15;93815.28;;;9.21;100.00
6389;BME280;3227;42.654;23.360;2024-03-02T02:56:43;93815.19;;;9.33;99.46
6389;BME280;3227;42.654;23.360;2024-03-02T02:59:09;93813.41;;;9.41;99.23
6389;BME280;3227;42.654;23.360;2024-03-02T03:01:36;93803.16;;;9.45;99.16
6389;BME280;3227;42.654;23.360;2024-03-02T03:04:03;93810.72;;;9.59;98.11
6389;BME280;3227;42.654;23.360;2024-03-02T03:06:30;93805.72;;;9.42;99.01
6389;BME280;3227;42.654;23.360;2024-03-02T03:08:57;93808.28;;;9.42;98.22
6389;BME280;3227;42.654;23.360;2024-03-02T03:11:23;93810.97;;;9.24;100.00
6389;BME280;3227;42.654;23.360;2024-03-02T03:13:53;93807.50;;;9.31;99.81
6389;BME280;3227;42.654;23.360;2024-03-02T03:16:20;93806.91;;;8.97;100.00
6389;BME280;3227;42.654;23.360;2024-03-02T03:18:47;93809.31;;;9.22;100.00
6389;BME280;3227;42.654;23.360;2024-03-02T03:21:16;93695.66;;;8.45;100.00
6389;BME280;3227;42.654;23.360;2024-03-02T03:23:43;93802.44;;;9.30;99.96
6389;BME280;3227;42.654;23.360;2024-03-02T03:26:10;93811.97;;;9.03;100.00
6389;BME280;3227;42.654;23.360;2024-03-02T03:28:37;93805.00;;;9.24;100.00
6389;BME280;3227;42.654;23.360;2024-03-02T03:31:05;93806.84;;;9.03;100.00
6389;BME280;3227;42.654;23.360;2024-03-02T03:33:32;93810.97;;;9.23;100.00
6389;BME280;3227;42.654;23.360;2024-03-02T03:35:59;93806.66;;;9.31;99.78
6389;BME280;3227;42.654;23.360;2024-03-02T03:38:26;93810.22;;;9.10;100.00
6389;BME280;3227;42.654;23.360;2024-03-02T03:40:53;93817.03;;;9.11;100.00
6389;BME280;3227;42.654;23.360;2024-03-02T03:43:20;93817.13;;;8.94;100.00
6389;BME280;3227;42.654;23.360;2024-03-02T03:45:47;93816.41;;;8.69;100.00
6389;BME280;3227;42.654;23.360;2024-03-02T03:48:15;93805.28;;;8.78;100.00
6389;BME280;3227;42.654;23.360;2024-03-02T03:50:41;93812.06;;;8.84;100.00
6389;BME280;3227;42.654;23.360;2024-03-02T03:53:08;93806.13;;;8.78;100.00
6389;BME280;3227;42.654;23.360;2024-03-02T03:55:35;93806.06;;;8.95;100.00
6389;BME280;3227;42.654;23.360;2024-03-02T03:58:01;93812.72;;;9.14;100.00
6389;BME280;3227;42.654;23.360;2024-03-02T04:00:28;93816.91;;;9.29;100.00
6389;BME280;3227;42.654;23.360;2024-03-02T04:02:55;93807.53;;;9.30;100.00
6389;BME280;3227;42.654;23.360;2024-03-02T04:05:23;93807.44;;;9.39;99.64
6389;BME280;3227;42.654;23.360;2024-03-02T04:07:50;93814.22;;;9.47;99.14
6389;BME280;3227;42.654;23.360;2024-03-02T04:10:16;93803.97;;;9.53;98.83
6389;BME280;3227;42.654;23.360;2024-03-02T04:12:43;93806.47;;;9.58;98.93
6389;BME280;3227;42.654;23.360;2024-03-02T04:15:10;93807.31;;;9.59;98.57
6389;BME280;3227;42.654;23.360;2024-03-02T04:17:36;93810.59;;;9.73;98.87
6389;BME280;3227;42.654;23.360;2024-03-02T04:20:04;93806.25;;;9.84;98.06
6389;BME280;3227;42.654;23.360;2024-03-02T04:22:34;93811.34;;;9.87;96.80
6389;BME280;3227;42.654;23.360;2024-03-02T04:25:01;93811.34;;;9.87;96.28
6389;BME280;3227;42.654;23.360;2024-03-02T04:27:30;93799.69;;;9.51;97.36
6389;BME280;3227;42.654;23.360;2024-03-02T04:29:57;93808.94;;;9.70;96.37
6389;BME280;3227;42.654;23.360;2024-03-02T04:32:24;93652.16;;;8.64;96.39
6389;BME280;3227;42.654;23.360;2024-03-02T04:34:50;93821.59;;;9.82;96.55
6389;BME280;3227;42.654;23.360;2024-03-02T04:37:17;93818.09;;;9.94;95.97
6389;BME280;3227;42.654;23.360;2024-03-02T04:39:45;93780.72;;;9.76;95.61
6389;BME280;3227;42.654;23.360;2024-03-02T04:42:12;93810.34;;;10.03;95.36
6389;BME280;3227;42.654;23.360;2024-03-02T04:44:39;93813.69;;;10.08;95.18
6389;BME280;3227;42.654;23.360;2024-03-02T04:47:05;93816.22;;;10.13;95.29
6389;BME280;3227;42.654;23.360;2024-03-02T04:49:32;93817.88;;;10.17;95.70
6389;BME280;3227;42.654;23.360;2024-03-02T04:51:59;93824.72;;;10.21;95.47
6389;BME280;3227;42.654;23.360;2024-03-02T04:54:27;93823.81;;;10.22;96.19
6389;BME280;3227;42.654;23.360;2024-03-02T04:56:55;93824.66;;;10.24;96.35
6389;BME280;3227;42.654;23.360;2024-03-02T04:59:21;93815.34;;;10.18;96.90
6389;BME280;3227;42.654;23.360;2024-03-02T05:01:48;93823.88;;;10.17;96.58
6389;BME280;3227;42.654;23.360;2024-03-02T05:04:15;93826.41;;;10.16;97.18
6389;BME280;3227;42.654;23.360;2024-03-02T05:06:41;93830.81;;;10.03;97.96
6389;BME280;3227;42.654;23.360;2024-03-02T05:09:08;93833.31;;;10.11;98.64
6389;BME280;3227;42.654;23.360;2024-03-02T05:11:35;93814.47;;;10.15;99.33
6389;BME280;3227;42.654;23.360;2024-03-02T05:14:26;93834.91;;;10.24;99.65
6389;BME280;3227;42.654;23.360;2024-03-02T05:16:54;93838.31;;;10.26;100.00
6389;BME280;3227;42.654;23.360;2024-03-02T05:19:21;93833.16;;;10.27;98.72
6389;BME280;3227;42.654;23.360;2024-03-02T05:21:48;93840.00;;;10.27;98.61
6389;BME280;3227;42.654;23.360;2024-03-02T05:24:15;93842.56;;;10.27;97.33
6389;BME280;3227;42.654;23.360;2024-03-02T05:26:41;93842.56;;;10.25;96.47
6389;BME280;3227;42.654;23.360;2024-03-02T05:29:09;93843.41;;;10.26;97.52
6389;BME280;3227;42.654;23.360;2024-03-02T05:31:37;93847.69;;;10.24;97.88
6389;BME280;3227;42.654;23.360;2024-03-02T05:34:03;93851.09;;;10.27;99.11
6389;BME280;3227;42.654;23.360;2024-03-02T05:36:30;93680.75;;;9.10;98.06
6389;BME280;3227;42.654;23.360;2024-03-02T05:38:57;93863.97;;;10.20;98.15
6389;BME280;3227;42.654;23.360;2024-03-02T05:41:24;93864.84;;;10.13;98.85
6389;BME280;3227;42.654;23.360;2024-03-02T05:43:51;93862.31;;;10.10;99.86
6389;BME280;3227;42.654;23.360;2024-03-02T05:46:17;93865.69;;;10.13;100.00
6389;BME280;3227;42.654;23.360;2024-03-02T05:48:45;93867.38;;;10.16;100.00
6389;BME280;3227;42.654;23.360;2024-03-02T05:51:12;93869.94;;;10.16;100.00
6389;BME280;3227;42.654;23.360;2024-03-02T05:53:39;93868.31;;;10.06;100.00
6389;BME280;3227;42.654;23.360;2024-03-02T05:56:06;93808.16;;;9.61;100.00
6389;BME280;3227;42.654;23.360;2024-03-02T05:58:33;93882.03;;;9.99;100.00
6389;BME280;3227;42.654;23.360;2024-03-02T06:01:13;93870.06;;;10.01;100.00
6389;BME280;3227;42.654;23.360;2024-03-02T06:03:40;93868.34;;;10.03;100.00
6389;BME280;3227;42.654;23.360;2024-03-02T06:06:08;93874.28;;;10.05;100.00
6389;BME280;3227;42.654;23.360;2024-03-02T06:08:35;93873.34;;;10.13;100.00
6389;BME280;3227;42.654;23.360;2024-03-02T06:11:02;93875.97;;;10.10;100.00
6389;BME280;3227;42.654;23.360;2024-03-02T06:13:29;93858.13;;;10.03;100.00
6389;BME280;3227;42.654;23.360;2024-03-02T06:15:56;93870.00;;;10.10;100.00
6389;BME280;3227;42.654;23.360;2024-03-02T06:18:23;93870.00;;;10.08;100.00
6389;BME280;3227;42.654;23.360;2024-03-02T06:20:50;93869.13;;;10.12;100.00
6389;BME280;3227;42.654;23.360;2024-03-02T06:23:18;93878.53;;;10.12;100.00
6389;BME280;3227;42.654;23.360;2024-03-02T06:25:44;93875.06;;;10.19;100.00
6389;BME280;3227;42.654;23.360;2024-03-02T06:28:11;93846.16;;;10.03;100.00
6389;BME280;3227;42.654;23.360;2024-03-02T06:30:40;93855.50;;;10.06;100.00
6389;BME280;3227;42.654;23.360;2024-03-02T06:33:07;93879.34;;;10.14;100.00
6389;BME280;3227;42.654;23.360;2024-03-02T06:35:34;93884.66;;;9.91;100.00
6389;BME280;3227;42.654;23.360;2024-03-02T06:38:01;93886.28;;;10.00;100.00
6389;BME280;3227;42.654;23.360;2024-03-02T06:40:29;93889.81;;;9.86;100.00
6389;BME280;3227;42.654;23.360;2024-03-02T06:42:55;93887.28;;;9.82;100.00
6389;BME280;3227;42.654;23.360;2024-03-02T06:45:22;93896.66;;;9.84;100.00
6389;BME280;3227;42.654;23.360;2024-03-02T06:47:49;93899.16;;;9.92;100.00
6389;BME280;3227;42.654;23.360;2024-03-02T06:50:16;93893.16;;;9.95;100.00
6389;BME280;3227;42.654;23.360;2024-03-02T06:52:42;93855.84;;;9.66;100.00
6389;BME280;3227;42.654;23.360;2024-03-02T06:55:09;93891.47;;;9.90;100.00
6389;BME280;3227;42.654;23.360;2024-03-02T06:57:37;93895.69;;;9.98;100.00
6389;BME280;3227;42.654;23.360;2024-03-02T07:00:05;93891.34;;;10.06;100.00
6389;BME280;3227;42.654;23.360;2024-03-02T07:02:34;93897.38;;;10.00;100.00
6389;BME280;3227;42.654;23.360;2024-03-02T07:05:01;93895.66;;;10.02;100.00
6389;BME280;3227;42.654;23.360;2024-03-02T07:07:28;93893.16;;;9.96;100.00
6389;BME280;3227;42.654;23.360;2024-03-02T07:09:55;93905.97;;;9.90;100.00
6389;BME280;3227;42.654;23.360;2024-03-02T07:12:21;93895.84;;;9.76;100.00
6389;BME280;3227;42.654;23.360;2024-03-02T07:14:50;93899.22;;;9.81;100.00
6389;BME280;3227;42.654;23.360;2024-03-02T07:17:50;93903.47;;;9.87;100.00
6389;BME280;3227;42.654;23.360;2024-03-02T07:20:17;93906.88;;;9.87;100.00
6389;BME280;3227;42.654;23.360;2024-03-02T07:22:43;93911.88;;;9.97;100.00
6389;BME280;3227;42.654;23.360;2024-03-02T07:25:10;93904.34;;;9.81;100.00
6389;BME280;3227;42.654;23.360;2024-03-02T07:27:37;93899.28;;;9.74;100.00
6389;BME280;3227;42.654;23.360;2024-03-02T07:30:06;93907.78;;;9.76;100.00
6389;BME280;3227;42.654;23.360;2024-03-02T07:32:33;93905.19;;;9.82;100.00
6389;BME280;3227;42.654;23.360;2024-03-02T07:34:59;93903.69;;;9.52;100.00
6389;BME280;3227;42.654;23.360;2024-03-02T07:37:26;93903.59;;;9.64;100.00
6389;BME280;3227;42.654;23.360;2024-03-02T07:39:53;93908.81;;;9.55;100.00
6389;BME280;3227;42.654;23.360;2024-03-02T07:42:20;93910.56;;;9.45;100.00
6389;BME280;3227;42.654;23.360;2024-03-02T07:44:47;93917.38;;;9.39;100.00
6389;BME280;3227;42.654;23.360;2024-03-02T07:47:15;93917.50;;;9.21;100.00
6389;BME280;3227;42.654;23.360;2024-03-02T07:49:42;93888.69;;;8.85;100.00
6389;BME280;3227;42.654;23.360;2024-03-02T07:52:10;93882.88;;;8.44;100.00
6389;BME280;3227;42.654;23.360;2024-03-02T07:54:37;93909.16;;;8.73;100.00
6389;BME280;3227;42.654;23.360;2024-03-02T07:57:04;93918.47;;;8.91;100.00
6389;BME280;3227;42.654;23.360;2024-03-02T07:59:30;93913.34;;;8.95;100.00
6389;BME280;3227;42.654;23.360;2024-03-02T08:01:57;93919.31;;;8.96;100.00
6389;BME280;3227;42.654;23.360;2024-03-02T08:04:26;93923.53;;;9.00;100.00
6389;BME280;3227;42.654;23.360;2024-03-02T08:06:52;93927.81;;;9.05;100.00
6389;BME280;3227;42.654;23.360;2024-03-02T08:09:20;93736.66;;;8.05;100.00
6389;BME280;3227;42.654;23.360;2024-03-02T08:11:46;93929.41;;;9.26;100.00
6389;BME280;3227;42.654;23.360;2024-03-02T08:14:13;93933.69;;;9.16;100.00
6389;BME280;3227;42.654;23.360;2024-03-02T08:16:40;93925.94;;;9.35;100.00
6389;BME280;3227;42.654;23.360;2024-03-02T08:19:07;93898.75;;;9.22;100.00
6389;BME280;3227;42.654;23.360;2024-03-02T08:21:35;93919.19;;;9.25;100.00
6389;BME280;3227;42.654;23.360;2024-03-02T08:24:05;93936.13;;;9.41;100.00
6389;BME280;3227;42.654;23.360;2024-03-02T08:26:32;93928.41;;;9.53;100.00
6389;BME280;3227;42.654;23.360;2024-03-02T08:28:59;93931.16;;;9.16;100.00
6389;BME280;3227;42.654;23.360;2024-03-02T08:31:28;93925.09;;;9.31;100.00
6389;BME280;3227;42.654;23.360;2024-03-02T08:33:55;93938.81;;;9.20;100.00
6389;BME280;3227;42.654;23.360;2024-03-02T08:36:25;93926.72;;;9.49;100.00
6389;BME280;3227;42.654;23.360;2024-03-02T08:38:53;93928.50;;;9.33;100.00
6389;BME280;3227;42.654;23.360;2024-03-02T08:41:19;93935.28;;;9.45;100.00
6389;BME280;3227;42.654;23.360;2024-03-02T08:43:46;93928.50;;;9.32;100.00
6389;BME280;3227;42.654;23.360;2024-03-02T08:46:13;93929.31;;;9.43;100.00
6389;BME280;3227;42.654;23.360;2024-03-02T08:48:40;93925.84;;;9.50;100.00
6389;BME280;3227;42.654;23.360;2024-03-02T08:51:07;93926.66;;;9.60;100.00
6389;BME280;3227;42.654;23.360;2024-03-02T08:53:35;93924.06;;;9.64;100.00
6389;BME280;3227;42.654;23.360;2024-03-02T08:56:04;93920.59;;;9.74;100.00
6389;BME280;3227;42.654;23.360;2024-03-02T08:58:31;93922.34;;;9.69;100.00
6389;BME280;3227;42.654;23.360;2024-03-02T09:00:58;93912.72;;;10.03;100.00
6389;BME280;3227;42.654;23.360;2024-03-02T09:03:25;93930.22;;;10.53;100.00
6389;BME280;3227;42.654;23.360;2024-03-02T09:05:52;93932.44;;;10.87;100.00
6389;BME280;3227;42.654;23.360;2024-03-02T09:08:19;93925.72;;;10.77;99.72
6389;BME280;3227;42.654;23.360;2024-03-02T09:10:45;93937.75;;;10.68;100.00
6389;BME280;3227;42.654;23.360;2024-03-02T09:13:14;93937.69;;;10.73;100.00
6389;BME280;3227;42.654;23.360;2024-03-02T09:15:41;93937.44;;;10.96;98.75
6389;BME280;3227;42.654;23.360;2024-03-02T09:18:08;93938.00;;;11.21;99.31
6389;BME280;3227;42.654;23.360;2024-03-02T09:20:34;93925.78;;;11.44;96.07
6389;BME280;3227;42.654;23.360;2024-03-02T09:23:01;93944.44;;;11.54;94.63
6389;BME280;3227;42.654;23.360;2024-03-02T09:25:28;93943.69;;;11.45;95.17
6389;BME280;3227;42.654;23.360;2024-03-02T09:27:54;93947.59;;;11.08;94.64
6389;BME280;3227;42.654;23.360;2024-03-02T09:30:23;93946.63;;;11.15;95.87
6389;BME280;3227;42.654;23.360;2024-03-02T09:32:50;93943.47;;;10.93;95.15
6389;BME280;3227;42.654;23.360;2024-03-02T09:35:16;93946.31;;;10.69;96.78
6389;BME280;3227;42.654;23.360;2024-03-02T09:37:43;93950.66;;;10.58;96.54
6389;BME280;3227;42.654;23.360;2024-03-02T09:40:11;93948.94;;;10.60;95.21
6389;BME280;3227;42.654;23.360;2024-03-02T09:42:38;93945.28;;;10.85;94.68
6389;BME280;3227;42.654;23.360;2024-03-02T09:45:06;93947.09;;;10.71;94.37
6389;BME280;3227;42.654;23.360;2024-03-02T09:47:34;93942.03;;;10.68;95.51
6389;BME280;3227;42.654;23.360;2024-03-02T09:50:01;93953.38;;;10.41;97.70
6389;BME280;3227;42.654;23.360;2024-03-02T09:52:29;93950.97;;;10.23;100.00
6389;BME280;3227;42.654;23.360;2024-03-02T09:54:56;93944.91;;;10.38;100.00
6389;BME280;3227;42.654;23.360;2024-03-02T09:57:23;93946.41;;;10.55;100.00
6389;BME280;3227;42.654;23.360;2024-03-02T09:59:50;93947.59;;;10.15;100.00
6389;BME280;3227;42.654;23.360;2024-03-02T10:02:17;93952.59;;;10.32;100.00
6389;BME280;3227;42.654;23.360;2024-03-02T10:04:45;93949.34;;;10.07;100.00
6389;BME280;3227;42.654;23.360;2024-03-02T10:07:13;93938.22;;;10.20;100.00
6389;BME280;3227;42.654;23.360;2024-03-02T10:09:40;93948.50;;;10.06;100.00
6389;BME280;3227;42.654;23.360;2024-03-02T10:12:09;93947.66;;;10.09;100.00
6389;BME280;3227;42.654;23.360;2024-03-02T10:14:36;93943.44;;;9.97;100.00
6389;BME280;3227;42.654;23.360;2024-03-02T10:17:04;93941.72;;;10.02;100.00
6389;BME280;3227;42.654;23.360;2024-03-02T10:19:31;93951.84;;;10.14;100.00
6389;BME280;3227;42.654;23.360;2024-03-02T10:22:02;93954.53;;;9.98;100.00
6389;BME280;3227;42.654;23.360;2024-03-02T10:24:35;93946.22;;;9.68;100.00
6389;BME280;3227;42.654;23.360;2024-03-02T10:27:06;93950.50;;;9.66;100.00
6389;BME280;3227;42.654;23.360;2024-03-02T10:29:36;93942.03;;;9.55;100.00
6389;BME280;3227;42.654;23.360;2024-03-02T10:32:04;93938.59;;;9.58;100.00
6389;BME280;3227;42.654;23.360;2024-03-02T10:34:32;93937.63;;;9.78;100.00
6389;BME280;3227;42.654;23.360;2024-03-02T10:37:00;93944.34;;;9.95;100.00
6389;BME280;3227;42.654;23.360;2024-03-02T10:39:28;93942.75;;;9.78;100.00
6389;BME280;3227;42.654;23.360;2024-03-02T10:41:57;93944.34;;;9.95;100.00
6389;BME280;3227;42.654;23.360;2024-03-02T10:44:49;93939.50;;;9.52;100.00
6389;BME280;3227;42.654;23.360;2024-03-02T10:47:19;93942.00;;;9.58;100.00
6389;BME280;3227;42.654;23.360;2024-03-02T10:49:49;93936.94;;;9.50;100.00
6389;BME280;3227;42.654;23.360;2024-03-02T10:52:19;93936.91;;;9.58;100.00
6389;BME280;3227;42.654;23.360;2024-03-02T10:54:48;93931.81;;;9.52;100.00
6389;BME280;3227;42.654;23.360;2024-03-02T10:57:16;93931.63;;;9.85;100.00
6389;BME280;3227;42.654;23.360;2024-03-02T10:59:52;93860.28;;;9.41;100.00
6389;BME280;3227;42.654;23.360;2024-03-02T11:02:21;93930.63;;;10.02;100.00
6389;BME280;3227;42.654;23.360;2024-03-02T11:04:49;93807.66;;;9.10;100.00
6389;BME280;3227;42.654;23.360;2024-03-02T11:07:18;93924.63;;;10.06;100.00
6389;BME280;3227;42.654;23.360;2024-03-02T11:09:54;93759.16;;;8.99;100.00
6389;BME280;3227;42.654;23.360;2024-03-02T11:12:29;93921.31;;;9.96;100.00
6389;BME280;3227;42.654;23.360;2024-03-02T11:14:56;93799.78;;;9.40;100.00
6389;BME280;3227;42.654;23.360;2024-03-02T11:17:23;93811.75;;;9.38;100.00
6389;BME280;3227;42.654;23.360;2024-03-02T11:19:51;93927.25;;;9.98;100.00
6389;BME280;3227;42.654;23.360;2024-03-02T11:22:20;93925.75;;;9.65;100.00
6389;BME280;3227;42.654;23.360;2024-03-02T11:24:48;93924.84;;;9.77;100.00
6389;BME280;3227;42.654;23.360;2024-03-02T11:30:50;93914.66;;;9.71;100.00
6389;BME280;3227;42.654;23.360;2024-03-02T11:33:24;93918.81;;;9.82;100.00
6389;BME280;3227;42.654;23.360;2024-03-02T11:35:56;93918.72;;;9.98;100.00
6389;BME280;3227;42.654;23.360;2024-03-02T11:38:28;93923.88;;;9.91;100.00
6389;BME280;3227;42.654;23.360;2024-03-02T11:40:54;93924.00;;;9.76;100.00
6389;BME280;3227;42.654;23.360;2024-03-02T11:43:21;93919.88;;;9.52;100.00
6389;BME280;3227;42.654;23.360;2024-03-02T11:45:56;93799.28;;;8.84;100.00
6389;BME280;3227;42.654;23.360;2024-03-02T11:48:24;93924.00;;;9.76;100.00
6389;BME280;3227;42.654;23.360;2024-03-02T11:50:51;93925.75;;;9.71;100.00
6389;BME280;3227;42.654;23.360;2024-03-02T11:53:19;93794.25;;;8.70;100.00
6389;BME280;3227;42.654;23.360;2024-03-02T11:55:49;93924.09;;;9.61;100.00
6389;BME280;3227;42.654;23.360;2024-03-02T11:58:16;93924.06;;;9.69;100.00
6389;BME280;3227;42.654;23.360;2024-03-02T12:00:45;93922.47;;;9.48;100.00
6389;BME280;3227;42.654;23.360;2024-03-02T12:03:13;93741.47;;;8.72;100.00
6389;BME280;3227;42.654;23.360;2024-03-02T12:05:40;93913.53;;;10.07;100.00
6389;BME280;3227;42.654;23.360;2024-03-02T12:08:08;93821.75;;;9.67;100.00
6389;BME280;3227;42.654;23.360;2024-03-02T12:10:36;93881.94;;;10.11;100.00
6389;BME280;3227;42.654;23.360;2024-03-02T12:13:06;93928.78;;;10.23;100.00
6389;BME280;3227;42.654;23.360;2024-03-02T12:15:34;93904.84;;;10.29;100.00
6389;BME280;3227;42.654;23.360;2024-03-02T12:18:02;93925.44;;;10.11;100.00
6389;BME280;3227;42.654;23.360;2024-03-02T12:20:30;93914.44;;;10.00;100.00
6389;BME280;3227;42.654;23.360;2024-03-02T12:22:58;93882.00;;;10.02;100.00
6389;BME280;3227;42.654;23.360;2024-03-02T12:25:26;93922.91;;;10.11;100.00
6389;BME280;3227;42.654;23.360;2024-03-02T12:27:54;93928.81;;;10.14;100.00
6389;BME280;3227;42.654;23.360;2024-03-02T12:30:23;93911.88;;;10.01;100.00
6389;BME280;3227;42.654;23.360;2024-03-02T12:32:50;93915.16;;;10.20;100.00
6389;BME280;3227;42.654;23.360;2024-03-02T12:35:18;93924.44;;;10.32;100.00
6389;BME280;3227;42.654;23.360;2024-03-02T12:37:45;93921.00;;;10.36;100.00
6389;BME280;3227;42.654;23.360;2024-03-02T12:40:12;93896.47;;;10.07;100.00
6389;BME280;3227;42.654;23.360;2024-03-02T12:42:39;93847.97;;;9.89;100.00
6389;BME280;3227;42.654;23.360;2024-03-02T12:45:07;93905.56;;;10.43;100.00
6389;BME280;3227;42.654;23.360;2024-03-02T12:47:36;93913.06;;;10.61;100.00
6389;BME280;3227;42.654;23.360;2024-03-02T12:50:04;93921.47;;;10.71;100.00
6389;BME280;3227;42.654;23.360;2024-03-02T12:52:31;93922.25;;;10.79;99.93
6389;BME280;3227;42.654;23.360;2024-03-02T12:54:59;93923.16;;;10.77;99.63
6389;BME280;3227;42.654;23.360;2024-03-02T12:57:28;93922.88;;;11.01;99.06
6389;BME280;3227;42.654;23.360;2024-03-02T12:59:58;93922.72;;;11.15;98.09
6389;BME280;3227;42.654;23.360;2024-03-02T13:02:28;93926.00;;;11.26;97.19
6389;BME280;3227;42.654;23.360;2024-03-02T13:04:57;93922.47;;;11.34;96.64
6389;BME280;3227;42.654;23.360;2024-03-02T13:07:25;93924.13;;;11.38;96.68
6389;BME280;3227;42.654;23.360;2024-03-02T13:09:52;93929.34;;;11.31;95.48
6389;BME280;3227;42.654;23.360;2024-03-02T13:12:21;93925.66;;;10.83;97.50
6389;BME280;3227;42.654;23.360;2024-03-02T13:14:48;93937.66;;;10.78;98.49
6389;BME280;3227;42.654;23.360;2024-03-02T13:17:17;93922.72;;;11.13;97.08
6389;BME280;3227;42.654;23.360;2024-03-02T13:19:51;93860.06;;;10.66;95.46